LFOB METAR and TAF | Updated Today

LFOB METAR

Paris Beauvais Tillé Airport

Observation time: 24 min. ago

LFOB 252000Z AUTO 24008KT 200V280 9999 FEW021 BKN029 BKN045 14/11 Q1020 NOSIG

Need help? Read our tutorial on how to read METARs or read the parsed version below.

Paris Beauvais Tillé Airport (LFOB) METAR

  • Weather conditions on Wed, 25 May 2022 20:00:00 +0000 (24 min. ago):
  • Present conditions: Dry
  • Clouds: A few at 640 meters; broken sky at 884 meters; broken sky at 1372 meters
  • Visibility: Greater than 10 km
  • Wind: 240 degrees at 8 knots
  • Temperature: 14 celsius
  • Dew point: 11 celsius
  • Pressure: 1020 millibars
  • Remarks: None


Useful to know...

LFOB TAF

Paris Beauvais Tillé Airport

TAF AMD LFOB 252020Z 2520/2618 26015KT 9999 OVC040 TEMPO 2521/2606 3000 DZ OVC010
Observation time: 4 min. ago
Need help? Read our tutorial on how to read TAFs or read the parsed version below.

Parsed version of TAF for Paris Beauvais Tillé Airport (LFOB)

  • From 25 May at 20:00 UTC, to day 26 of the month at 18:00 UTC
  • Clouds: Overcast sky at 1219 meters
  • Visibility: Greater than 10 km
  • Wind: 260 degrees at 15
  • Expected to arise temporarily, from 25 May at 21:00 UTC, to day 26 of the month at 06:00 UTC
  • Clouds: Overcast sky at 305 meters
  • Visibility: 3000 meters
  • Other: Drizzle